createdAt,value
2023-04-25T00:00:58.531Z,87789.00
2023-04-25T00:01:58.630Z,87789.00
2023-04-25T00:02:58.781Z,87787.00
2023-04-25T00:03:59.057Z,87789.00
2023-04-25T00:04:59.027Z,87791.00
2023-04-25T00:05:59.033Z,87791.00
2023-04-25T00:06:59.002Z,87793.00
2023-04-25T00:07:59.066Z,87793.00
2023-04-25T00:08:59.134Z,87791.00
2023-04-25T00:09:59.144Z,87793.00
2023-04-25T00:10:59.153Z,87793.00
2023-04-25T00:11:59.180Z,87787.00
2023-04-25T00:12:59.210Z,87789.00
2023-04-25T00:13:59.258Z,87789.00
2023-04-25T00:14:59.237Z,87787.00
2023-04-25T00:15:59.320Z,87785.00
2023-04-25T00:16:59.264Z,87783.00
2023-04-25T00:17:59.338Z,87781.00
2023-04-25T00:18:59.316Z,87779.00
2023-04-25T00:19:59.357Z,87779.00
2023-04-25T00:20:59.436Z,87779.00
2023-04-25T00:21:59.502Z,87778.00
2023-04-25T00:22:59.575Z,87779.00
2023-04-25T00:23:59.654Z,87778.00
2023-04-25T00:24:59.711Z,87778.00
2023-04-25T00:25:59.802Z,87778.00
2023-04-25T00:26:59.871Z,87778.00
2023-04-25T00:27:59.948Z,87778.00
2023-04-25T00:29:00.017Z,87778.00
2023-04-25T00:30:00.201Z,87776.00
2023-04-25T00:31:00.174Z,87776.00
2023-04-25T00:32:00.370Z,87776.00
2023-04-25T00:33:00.356Z,87774.00
2023-04-25T00:34:00.409Z,87774.00
2023-04-25T00:35:00.463Z,87774.00
2023-04-25T00:36:00.543Z,87772.00
2023-04-25T00:37:00.614Z,87774.00
2023-04-25T00:38:00.702Z,87774.00
2023-04-25T00:39:00.770Z,87776.00
2023-04-25T00:40:00.861Z,87774.00
2023-04-25T00:41:00.955Z,87772.00
2023-04-25T00:42:01.031Z,87772.00
2023-04-25T00:43:01.100Z,87772.00
2023-04-25T00:44:01.168Z,87772.00
2023-04-25T00:45:01.251Z,87770.00
2023-04-25T00:46:01.333Z,87770.00
2023-04-25T00:47:01.451Z,87772.00
2023-04-25T00:48:01.507Z,87776.00
2023-04-25T00:49:01.554Z,87772.00
2023-04-25T00:50:01.627Z,87774.00
2023-04-25T00:51:01.738Z,87772.00
2023-04-25T00:52:01.820Z,87770.00
2023-04-25T00:53:01.869Z,87770.00
2023-04-25T00:54:01.959Z,87768.00
2023-04-25T00:55:02.019Z,87768.00
2023-04-25T00:56:02.102Z,87764.00
2023-04-25T00:57:02.172Z,87764.00
2023-04-25T00:58:02.260Z,87762.00
2023-04-25T00:59:02.340Z,87764.00
2023-04-25T01:00:02.426Z,87762.00
2023-04-25T01:01:02.581Z,87764.00
2023-04-25T01:02:02.614Z,87760.00
2023-04-25T01:03:02.753Z,87760.00
2023-04-25T01:04:02.820Z,87758.00
2023-04-25T01:05:02.850Z,87756.00
2023-04-25T01:06:02.950Z,87754.00
2023-04-25T01:07:02.989Z,87756.00
2023-04-25T01:08:03.061Z,87758.00
2023-04-25T01:09:03.114Z,87758.00
2023-04-25T01:10:03.206Z,87758.00
2023-04-25T01:11:03.280Z,87758.00
2023-04-25T01:12:03.354Z,87758.00
2023-04-25T01:13:03.420Z,87756.00
2023-04-25T01:14:03.509Z,87754.00
2023-04-25T01:15:03.590Z,87752.00
2023-04-25T01:16:03.678Z,87750.00
2023-04-25T01:17:03.797Z,87748.00
2023-04-25T01:18:03.872Z,87748.00
2023-04-25T01:19:03.925Z,87746.00
2023-04-25T01:20:03.995Z,87746.00
2023-04-25T01:21:04.095Z,87746.00
2023-04-25T01:22:04.174Z,87748.00
2023-04-25T01:23:04.255Z,87746.00
2023-04-25T01:24:04.327Z,87748.00
2023-04-25T01:25:04.408Z,87742.00
2023-04-25T01:26:04.514Z,87742.00
2023-04-25T01:27:04.588Z,87742.00
2023-04-25T01:28:04.665Z,87742.00
2023-04-25T01:29:04.749Z,87744.00
2023-04-25T01:30:04.841Z,87744.00
2023-04-25T01:31:04.879Z,87748.00
2023-04-25T01:32:04.903Z,87746.00
2023-04-25T01:33:04.949Z,87744.00
2023-04-25T01:34:04.906Z,87744.00
2023-04-25T01:35:04.920Z,87744.00
2023-04-25T01:36:04.982Z,87742.00
2023-04-25T01:37:04.965Z,87742.00
2023-04-25T01:38:04.988Z,87738.00
2023-04-25T01:39:04.985Z,87736.00
2023-04-25T01:40:05.067Z,87734.00
2023-04-25T01:41:05.166Z,87725.00
2023-04-25T01:42:05.211Z,87723.00
2023-04-25T01:43:05.325Z,87721.00
2023-04-25T01:44:05.397Z,87719.00
2023-04-25T01:45:05.447Z,87719.00
2023-04-25T01:46:05.602Z,87719.00
2023-04-25T01:47:05.607Z,87719.00
2023-04-25T01:48:05.644Z,87723.00
2023-04-25T01:49:05.622Z,87725.00
2023-04-25T01:50:05.647Z,87734.00
2023-04-25T01:51:05.666Z,87732.00
2023-04-25T01:52:05.669Z,87736.00
2023-04-25T01:53:05.688Z,87736.00
2023-04-25T01:54:05.698Z,87740.00
2023-04-25T01:55:05.723Z,87740.00
2023-04-25T01:56:05.742Z,87740.00
2023-04-25T01:57:05.829Z,87740.00
2023-04-25T01:58:05.918Z,87740.00
2023-04-25T01:59:05.991Z,87740.00
2023-04-25T02:00:06.071Z,87740.00
2023-04-25T02:01:06.253Z,87740.00
2023-04-25T02:02:06.290Z,87740.00
2023-04-25T02:03:06.437Z,87740.00
2023-04-25T02:04:06.614Z,87736.00
2023-04-25T02:05:06.494Z,87738.00
2023-04-25T02:06:06.616Z,87736.00
2023-04-25T02:07:06.654Z,87738.00
2023-04-25T02:08:06.756Z,87740.00
2023-04-25T02:09:06.834Z,87740.00
2023-04-25T02:10:06.911Z,87742.00
2023-04-25T02:11:06.985Z,87744.00
2023-04-25T02:12:07.086Z,87744.00
2023-04-25T02:13:07.180Z,87742.00
2023-04-25T02:14:07.247Z,87742.00
2023-04-25T02:15:07.341Z,87744.00
2023-04-25T02:16:07.554Z,87746.00
2023-04-25T02:17:07.636Z,87746.00
2023-04-25T02:18:07.647Z,87748.00
2023-04-25T02:19:07.666Z,87746.00
2023-04-25T02:20:07.747Z,87746.00
2023-04-25T02:21:07.853Z,87742.00
2023-04-25T02:22:07.938Z,87742.00
2023-04-25T02:23:08.012Z,87740.00
2023-04-25T02:24:08.098Z,87738.00
2023-04-25T02:25:08.186Z,87738.00
2023-04-25T02:26:08.261Z,87736.00
2023-04-25T02:27:08.358Z,87732.00
2023-04-25T02:28:08.429Z,87734.00
2023-04-25T02:29:08.508Z,87725.00
2023-04-25T02:30:08.580Z,87725.00
2023-04-25T02:31:08.686Z,87721.00
2023-04-25T02:32:08.732Z,87721.00
2023-04-25T02:33:08.879Z,87719.00
2023-04-25T02:34:08.885Z,87719.00
2023-04-25T02:35:09.001Z,87719.00
2023-04-25T02:36:09.096Z,87719.00
2023-04-25T02:37:09.073Z,87716.00
2023-04-25T02:38:09.093Z,87718.00
2023-04-25T02:39:09.117Z,87716.00
2023-04-25T02:40:09.121Z,87718.00
2023-04-25T02:41:09.140Z,87721.00
2023-04-25T02:42:09.141Z,87716.00
2023-04-25T02:43:09.180Z,87716.00
2023-04-25T02:44:09.178Z,87716.00
2023-04-25T02:45:09.223Z,87718.00
2023-04-25T02:46:09.323Z,87719.00
2023-04-25T02:47:09.384Z,87716.00
2023-04-25T02:48:09.355Z,87716.00
2023-04-25T02:49:09.334Z,87718.00
2023-04-25T02:50:09.344Z,87714.00
2023-04-25T02:51:09.357Z,87714.00
2023-04-25T02:52:09.377Z,87716.00
2023-04-25T02:53:09.379Z,87716.00
2023-04-25T02:54:09.394Z,87716.00
2023-04-25T02:55:09.425Z,87718.00
2023-04-25T02:56:09.524Z,87719.00
2023-04-25T02:57:09.600Z,87719.00
2023-04-25T02:58:09.664Z,87723.00
2023-04-25T02:59:09.752Z,87719.00
2023-04-25T03:00:09.849Z,87719.00
2023-04-25T03:01:09.969Z,87716.00
2023-04-25T03:02:10.040Z,87718.00
2023-04-25T03:03:10.096Z,87718.00
2023-04-25T03:04:10.188Z,87714.00
2023-04-25T03:05:10.109Z,87712.00
2023-04-25T03:06:10.124Z,87708.00
2023-04-25T03:07:10.164Z,87708.00
2023-04-25T03:08:10.165Z,87708.00
2023-04-25T03:09:10.200Z,87708.00
2023-04-25T03:10:10.213Z,87708.00
2023-04-25T03:11:10.235Z,87704.00
2023-04-25T03:12:10.259Z,87704.00
2023-04-25T03:13:10.293Z,87702.00
2023-04-25T03:14:10.288Z,87706.00
2023-04-25T03:15:10.310Z,87704.00
2023-04-25T03:16:10.369Z,87708.00
2023-04-25T03:17:10.355Z,87704.00
2023-04-25T03:18:10.411Z,87706.00
2023-04-25T03:19:10.402Z,87710.00
2023-04-25T03:20:10.434Z,87710.00
2023-04-25T03:21:10.446Z,87712.00
2023-04-25T03:22:10.491Z,87714.00
2023-04-25T03:23:10.518Z,87714.00
2023-04-25T03:24:10.539Z,87714.00
2023-04-25T03:25:10.561Z,87712.00
2023-04-25T03:26:10.583Z,87712.00
2023-04-25T03:27:10.616Z,87712.00
2023-04-25T03:28:10.643Z,87714.00
2023-04-25T03:29:10.659Z,87712.00
2023-04-25T03:30:10.674Z,87712.00
2023-04-25T03:31:10.737Z,87710.00
2023-04-25T03:32:10.782Z,87708.00
2023-04-25T03:33:10.847Z,87708.00
2023-04-25T03:34:10.857Z,87708.00
2023-04-25T03:35:10.921Z,87708.00
2023-04-25T03:36:11.019Z,87704.00
2023-04-25T03:37:11.031Z,87702.00
2023-04-25T03:38:11.087Z,87704.00
2023-04-25T03:39:11.158Z,87700.00
2023-04-25T03:40:11.214Z,87698.00
2023-04-25T03:41:11.289Z,87696.00
2023-04-25T03:42:11.308Z,87700.00
2023-04-25T03:43:11.330Z,87696.00
2023-04-25T03:44:11.349Z,87696.00
2023-04-25T03:45:11.381Z,87696.00
2023-04-25T03:46:11.453Z,87696.00
2023-04-25T03:47:11.432Z,87696.00
2023-04-25T03:48:11.482Z,87698.00
2023-04-25T03:49:11.505Z,87698.00
2023-04-25T03:50:11.529Z,87696.00
2023-04-25T03:51:11.554Z,87696.00
2023-04-25T03:52:11.592Z,87698.00
2023-04-25T03:53:11.674Z,87700.00
2023-04-25T03:54:11.744Z,87700.00
2023-04-25T03:55:11.826Z,87694.00
2023-04-25T03:56:11.905Z,87696.00
2023-04-25T03:57:12.011Z,87692.00
2023-04-25T03:58:12.071Z,87690.00
2023-04-25T03:59:12.167Z,87690.00
2023-04-25T04:00:12.241Z,87688.00
2023-04-25T04:01:12.350Z,87686.00
2023-04-25T04:02:12.503Z,87686.00
2023-04-25T04:03:12.668Z,87688.00
2023-04-25T04:04:12.786Z,87690.00
2023-04-25T04:05:12.865Z,87690.00
2023-04-25T04:06:12.773Z,87690.00
2023-04-25T04:07:12.891Z,87688.00
2023-04-25T04:08:12.964Z,87690.00
2023-04-25T04:09:13.067Z,87692.00
2023-04-25T04:10:13.145Z,87690.00
2023-04-25T04:11:13.269Z,87690.00
2023-04-25T04:12:13.331Z,87692.00
2023-04-25T04:13:13.417Z,87694.00
2023-04-25T04:14:13.454Z,87694.00
2023-04-25T04:15:13.481Z,87694.00
2023-04-25T04:16:13.587Z,87694.00
2023-04-25T04:17:13.542Z,87692.00
2023-04-25T04:18:13.564Z,87696.00
2023-04-25T04:19:13.572Z,87694.00
2023-04-25T04:20:13.609Z,87694.00
2023-04-25T04:21:13.652Z,87694.00
2023-04-25T04:22:13.734Z,87698.00
2023-04-25T04:23:13.818Z,87696.00
2023-04-25T04:24:13.914Z,87698.00
2023-04-25T04:25:14.006Z,87698.00
2023-04-25T04:26:14.102Z,87696.00
2023-04-25T04:27:14.199Z,87696.00
2023-04-25T04:28:14.309Z,87696.00
2023-04-25T04:29:14.356Z,87696.00
2023-04-25T04:30:14.437Z,87696.00
2023-04-25T04:31:14.565Z,87696.00
2023-04-25T04:32:14.545Z,87690.00
2023-04-25T04:33:14.556Z,87690.00
2023-04-25T04:34:14.603Z,87692.00
2023-04-25T04:35:14.614Z,87694.00
2023-04-25T04:36:14.655Z,87696.00
2023-04-25T04:37:14.688Z,87692.00
2023-04-25T04:38:14.703Z,87694.00
2023-04-25T04:39:14.737Z,87694.00
2023-04-25T04:40:14.768Z,87694.00
2023-04-25T04:41:14.807Z,87692.00
2023-04-25T04:42:14.832Z,87692.00
2023-04-25T04:43:14.855Z,87692.00
2023-04-25T04:44:14.901Z,87690.00
2023-04-25T04:45:14.930Z,87690.00
2023-04-25T04:46:14.989Z,87690.00
2023-04-25T04:47:14.987Z,87690.00
2023-04-25T04:48:15.088Z,87694.00
2023-04-25T04:49:15.046Z,87694.00
2023-04-25T04:50:15.102Z,87694.00
2023-04-25T04:51:15.115Z,87696.00
2023-04-25T04:52:15.159Z,87696.00
2023-04-25T04:53:15.162Z,87694.00
2023-04-25T04:54:15.232Z,87692.00
2023-04-25T04:55:15.249Z,87692.00
2023-04-25T04:56:15.280Z,87692.00
2023-04-25T04:57:15.325Z,87690.00
2023-04-25T04:58:17.416Z,87688.00
2023-04-25T04:59:15.425Z,87692.00
2023-04-25T05:00:15.445Z,87690.00
2023-04-25T05:01:15.513Z,87690.00
2023-04-25T05:02:15.545Z,87688.00
2023-04-25T05:03:15.701Z,87690.00
2023-04-25T05:04:15.676Z,87688.00
2023-04-25T05:05:15.647Z,87688.00
2023-04-25T05:06:15.671Z,87688.00
2023-04-25T05:07:15.729Z,87686.00
2023-04-25T05:08:15.750Z,87684.00
2023-04-25T05:09:15.800Z,87684.00
2023-04-25T05:10:15.838Z,87682.00
2023-04-25T05:11:15.874Z,87680.00
2023-04-25T05:12:15.960Z,87680.00
2023-04-25T05:13:15.956Z,87682.00
2023-04-25T05:14:16.019Z,87684.00
2023-04-25T05:15:16.042Z,87682.00
2023-04-25T05:16:16.140Z,87684.00
2023-04-25T05:17:16.163Z,87682.00
2023-04-25T05:18:16.159Z,87680.00
2023-04-25T05:19:16.216Z,87680.00
2023-04-25T05:20:16.255Z,87682.00
2023-04-25T05:21:16.293Z,87682.00
2023-04-25T05:22:16.335Z,87684.00
2023-04-25T05:23:16.366Z,87682.00
2023-04-25T05:24:16.418Z,87682.00
2023-04-25T05:25:16.461Z,87684.00
2023-04-25T05:26:16.484Z,87686.00
2023-04-25T05:27:16.545Z,87686.00
2023-04-25T05:28:16.565Z,87690.00
2023-04-25T05:29:16.620Z,87690.00
2023-04-25T05:30:16.668Z,87686.00
2023-04-25T05:31:16.721Z,87686.00
2023-04-25T05:32:16.861Z,87682.00
2023-04-25T05:33:16.910Z,87682.00
2023-04-25T05:34:16.876Z,87682.00
2023-04-25T05:35:16.986Z,87678.00
2023-04-25T05:36:16.925Z,87680.00
2023-04-25T05:37:16.998Z,87682.00
2023-04-25T05:38:17.005Z,87676.00
2023-04-25T05:39:17.059Z,87676.00
2023-04-25T05:40:17.118Z,87676.00
2023-04-25T05:41:17.250Z,87674.00
2023-04-25T05:42:17.303Z,87676.00
2023-04-25T05:43:17.403Z,87674.00
2023-04-25T05:44:17.457Z,87672.00
2023-04-25T05:45:17.542Z,87672.00
2023-04-25T05:46:17.650Z,87672.00
2023-04-25T05:47:17.731Z,87668.00
2023-04-25T05:48:17.799Z,87668.00
2023-04-25T05:49:19.468Z,87668.00
2023-04-25T05:50:18.061Z,87670.00
2023-04-25T05:51:18.037Z,87674.00
2023-04-25T05:52:18.065Z,87672.00
2023-04-25T05:53:18.183Z,87678.00
2023-04-25T05:54:18.186Z,87678.00
2023-04-25T05:55:18.294Z,87678.00
2023-04-25T05:56:18.301Z,87678.00
2023-04-25T05:57:18.365Z,87678.00
2023-04-25T05:58:18.416Z,87682.00
2023-04-25T05:59:18.650Z,87682.00
2023-04-25T06:00:18.529Z,87682.00
2023-04-25T06:01:18.583Z,87680.00
2023-04-25T06:02:18.703Z,87686.00
2023-04-25T06:03:20.450Z,87684.00
2023-04-25T06:04:19.098Z,87682.00
2023-04-25T06:05:18.861Z,87684.00
2023-04-25T06:06:18.772Z,87682.00
2023-04-25T06:07:18.837Z,87680.00
2023-04-25T06:08:18.862Z,87678.00
2023-04-25T06:09:18.869Z,87678.00
2023-04-25T06:10:18.910Z,87676.00
2023-04-25T06:11:18.951Z,87676.00
2023-04-25T06:12:18.973Z,87676.00
2023-04-25T06:13:19.003Z,87674.00
2023-04-25T06:14:19.028Z,87674.00
2023-04-25T06:15:27.935Z,87674.00
2023-04-25T06:16:20.135Z,87670.00
2023-04-25T06:17:19.143Z,87668.00
2023-04-25T06:18:19.129Z,87664.00
2023-04-25T06:19:19.160Z,87663.00
2023-04-25T06:20:19.175Z,87659.00
2023-04-25T06:21:19.209Z,87657.00
2023-04-25T06:22:19.242Z,87653.00
2023-04-25T06:23:19.288Z,87649.00
2023-04-25T06:24:19.342Z,87647.00
2023-04-25T06:25:19.418Z,87647.00
2023-04-25T06:26:19.529Z,87647.00
2023-04-25T06:27:19.597Z,87645.00
2023-04-25T06:28:19.730Z,87643.00
2023-04-25T06:29:19.794Z,87635.00
2023-04-25T06:30:19.908Z,87633.00
2023-04-25T06:31:19.981Z,87631.00
2023-04-25T06:32:20.069Z,87631.00
2023-04-25T06:33:20.191Z,87633.00
2023-04-25T06:34:20.312Z,87629.00
2023-04-25T06:35:20.337Z,87627.00
2023-04-25T06:36:20.443Z,87625.00
2023-04-25T06:37:20.501Z,87623.00
2023-04-25T06:38:20.590Z,87623.00
2023-04-25T06:39:20.678Z,87623.00
2023-04-25T06:40:20.777Z,87621.00
2023-04-25T06:41:20.814Z,87621.00
2023-04-25T06:42:20.916Z,87617.00
2023-04-25T06:43:21.002Z,87617.00
2023-04-25T06:44:21.043Z,87617.00
2023-04-25T06:45:21.089Z,87616.00
2023-04-25T06:46:21.235Z,87614.00
2023-04-25T06:47:21.328Z,87612.00
2023-04-25T06:48:21.132Z,87610.00
2023-04-25T06:49:21.156Z,87610.00
2023-04-25T06:50:21.181Z,87612.00
2023-04-25T06:51:23.541Z,87606.00
2023-04-25T06:52:21.277Z,87608.00
2023-04-25T06:53:21.326Z,87602.00
2023-04-25T06:54:21.296Z,87600.00
2023-04-25T06:55:21.313Z,87600.00
2023-04-25T06:56:21.389Z,87600.00
2023-04-25T06:57:21.394Z,87598.00
2023-04-25T06:58:21.423Z,87600.00
2023-04-25T06:59:21.453Z,87596.00
2023-04-25T07:00:21.488Z,87596.00
2023-04-25T07:01:21.606Z,87598.00
2023-04-25T07:02:21.606Z,87598.00
2023-04-25T07:03:21.707Z,87596.00
2023-04-25T07:04:21.839Z,87594.00
2023-04-25T07:05:21.672Z,87596.00
2023-04-25T07:06:21.695Z,87596.00
2023-04-25T07:07:21.738Z,87596.00
2023-04-25T07:08:21.782Z,87594.00
2023-04-25T07:09:21.812Z,87596.00
2023-04-25T07:10:21.849Z,87596.00
2023-04-25T07:11:21.868Z,87594.00
2023-04-25T07:12:21.908Z,87590.00
2023-04-25T07:13:22.007Z,87592.00
2023-04-25T07:14:21.976Z,87594.00
2023-04-25T07:15:22.027Z,87594.00
2023-04-25T07:16:22.050Z,87598.00
2023-04-25T07:17:22.105Z,87598.00
2023-04-25T07:18:22.122Z,87598.00
2023-04-25T07:19:22.117Z,87602.00
2023-04-25T07:20:22.160Z,87602.00
2023-04-25T07:21:22.186Z,87604.00
2023-04-25T07:22:22.234Z,87604.00
2023-04-25T07:23:22.302Z,87604.00
2023-04-25T07:24:22.255Z,87604.00
2023-04-25T07:25:22.307Z,87604.00
2023-04-25T07:26:22.336Z,87604.00
2023-04-25T07:27:22.367Z,87600.00
2023-04-25T07:28:22.397Z,87594.00
2023-04-25T07:29:22.434Z,87592.00
2023-04-25T07:30:22.447Z,87588.00
2023-04-25T07:31:22.493Z,87584.00
2023-04-25T07:32:22.571Z,87576.00
2023-04-25T07:33:22.549Z,87576.00
2023-04-25T07:34:22.562Z,87580.00
2023-04-25T07:35:22.565Z,87578.00
2023-04-25T07:36:22.626Z,87586.00
2023-04-25T07:37:22.681Z,87582.00
2023-04-25T07:38:22.652Z,87584.00
2023-04-25T07:39:22.671Z,87586.00
2023-04-25T07:40:22.736Z,87576.00
2023-04-25T07:41:22.774Z,87582.00
2023-04-25T07:42:22.756Z,87586.00
2023-04-25T07:43:22.826Z,87588.00
2023-04-25T07:44:22.847Z,87584.00
2023-04-25T07:45:22.852Z,87590.00
2023-04-25T07:46:23.014Z,87588.00
2023-04-25T07:47:23.038Z,87588.00
2023-04-25T07:48:23.149Z,87590.00
2023-04-25T07:49:23.211Z,87594.00
2023-04-25T07:50:23.350Z,87592.00
2023-04-25T07:51:23.463Z,87592.00
2023-04-25T07:52:23.490Z,87594.00
2023-04-25T07:53:23.624Z,87594.00
2023-04-25T07:54:23.673Z,87596.00
2023-04-25T07:55:23.781Z,87596.00
2023-04-25T07:56:23.865Z,87598.00
2023-04-25T07:57:23.952Z,87598.00
2023-04-25T07:58:24.062Z,87596.00
2023-04-25T07:59:24.112Z,87598.00
2023-04-25T08:00:24.231Z,87598.00
2023-04-25T08:01:24.298Z,87600.00
2023-04-25T08:02:24.493Z,87604.00
2023-04-25T08:03:24.595Z,87606.00
2023-04-25T08:04:24.677Z,87604.00
2023-04-25T08:05:24.795Z,87604.00
2023-04-25T08:06:24.918Z,87604.00
2023-04-25T08:07:24.852Z,87602.00
2023-04-25T08:08:24.873Z,87602.00
2023-04-25T08:09:24.899Z,87602.00
2023-04-25T08:10:24.914Z,87602.00
2023-04-25T08:11:24.957Z,87602.00
2023-04-25T08:12:24.970Z,87598.00
2023-04-25T08:13:24.979Z,87604.00
2023-04-25T08:14:25.006Z,87608.00
2023-04-25T08:15:25.004Z,87608.00
2023-04-25T08:16:25.147Z,87612.00
2023-04-25T08:17:25.180Z,87610.00
2023-04-25T08:18:25.190Z,87612.00
2023-04-25T08:19:25.166Z,87612.00
2023-04-25T08:20:25.208Z,87612.00
2023-04-25T08:21:25.209Z,87612.00
2023-04-25T08:22:25.264Z,87606.00
2023-04-25T08:23:25.266Z,87610.00
2023-04-25T08:24:25.302Z,87610.00
2023-04-25T08:25:25.316Z,87614.00
2023-04-25T08:26:25.321Z,87612.00
2023-04-25T08:27:25.328Z,87612.00
2023-04-25T08:28:25.367Z,87614.00
2023-04-25T08:29:25.406Z,87612.00
2023-04-25T08:30:25.402Z,87612.00
2023-04-25T08:31:25.485Z,87606.00
2023-04-25T08:32:25.423Z,87608.00
2023-04-25T08:33:25.529Z,87600.00
2023-04-25T08:34:25.463Z,87602.00
2023-04-25T08:35:25.488Z,87602.00
2023-04-25T08:36:38.642Z,87600.00
2023-04-25T08:37:26.520Z,87604.00
2023-04-25T08:38:25.571Z,87604.00
2023-04-25T08:39:25.638Z,87604.00
2023-04-25T08:40:25.589Z,87602.00
2023-04-25T08:41:25.618Z,87602.00
2023-04-25T08:42:25.645Z,87602.00
2023-04-25T08:43:25.667Z,87604.00
2023-04-25T08:44:25.665Z,87602.00
2023-04-25T08:45:25.700Z,87604.00
2023-04-25T08:46:25.754Z,87604.00
2023-04-25T08:47:25.708Z,87612.00
2023-04-25T08:48:25.719Z,87606.00
2023-04-25T08:49:25.736Z,87606.00
2023-04-25T08:50:25.744Z,87604.00
2023-04-25T08:51:25.833Z,87612.00
2023-04-25T08:52:25.923Z,87612.00
2023-04-25T08:53:26.228Z,87616.00
2023-04-25T08:55:27.133Z,87608.00
2023-04-25T08:56:26.121Z,87612.00
2023-04-25T08:57:26.153Z,87612.00
2023-04-25T08:58:26.169Z,87612.00
2023-04-25T08:59:26.205Z,87616.00
2023-04-25T09:00:26.252Z,87616.00
2023-04-25T09:01:26.260Z,87612.00
2023-04-25T09:02:26.505Z,87614.00
2023-04-25T09:03:26.331Z,87616.00
2023-04-25T09:04:26.411Z,87619.00
2023-04-25T09:05:26.449Z,87616.00
2023-04-25T09:06:26.513Z,87621.00
2023-04-25T09:07:26.609Z,87617.00
2023-04-25T09:08:26.714Z,87614.00
2023-04-25T09:09:26.771Z,87617.00
2023-04-25T09:10:26.829Z,87616.00
2023-04-25T09:10:29.088Z,87612.00
2023-04-25T09:11:26.967Z,87612.00
2023-04-25T09:12:27.008Z,87617.00
2023-04-25T09:13:27.077Z,87617.00
2023-04-25T09:15:42.944Z,87623.00
2023-04-25T09:16:42.981Z,87621.00
2023-04-25T09:17:43.058Z,87621.00
2023-04-25T09:18:48.369Z,87621.00
2023-04-25T09:19:44.089Z,87621.00
2023-04-25T09:20:56.379Z,87616.00
2023-04-25T09:21:44.096Z,87623.00
2023-04-25T09:22:43.044Z,87625.00
2023-04-25T09:23:43.124Z,87621.00
2023-04-25T09:24:43.025Z,87623.00
2023-04-25T09:25:43.065Z,87621.00
2023-04-25T09:26:43.003Z,87621.00
2023-04-25T09:27:43.034Z,87619.00
2023-04-25T09:28:43.017Z,87623.00
2023-04-25T09:29:43.006Z,87623.00
2023-04-25T09:30:42.950Z,87623.00
2023-04-25T09:31:42.996Z,87623.00
2023-04-25T09:32:42.999Z,87621.00
2023-04-25T09:33:43.089Z,87623.00
2023-04-25T09:34:43.139Z,87627.00
2023-04-25T09:35:43.167Z,87625.00
2023-04-25T09:36:43.245Z,87625.00
2023-04-25T09:37:43.274Z,87629.00
2023-04-25T09:38:43.341Z,87633.00
2023-04-25T09:39:43.287Z,87633.00
2023-04-25T09:40:44.437Z,87631.00
2023-04-25T09:41:43.270Z,87631.00
2023-04-25T09:42:43.269Z,87631.00
2023-04-25T09:43:43.248Z,87633.00
2023-04-25T09:44:43.282Z,87637.00
2023-04-25T09:45:43.268Z,87635.00
2023-04-25T09:46:43.372Z,87637.00
2023-04-25T09:47:43.248Z,87637.00
2023-04-25T09:48:43.214Z,87635.00
2023-04-25T09:49:43.216Z,87631.00
2023-04-25T09:50:43.222Z,87633.00
2023-04-25T09:51:43.194Z,87631.00
2023-04-25T09:52:43.200Z,87631.00
2023-04-25T09:53:43.188Z,87629.00
2023-04-25T09:54:43.236Z,87631.00
2023-04-25T09:55:43.189Z,87629.00
2023-04-25T09:56:43.234Z,87629.00
2023-04-25T09:57:43.158Z,87629.00
2023-04-25T09:58:43.162Z,87629.00
2023-04-25T09:59:43.196Z,87631.00
2023-04-25T10:00:43.173Z,87629.00
2023-04-25T10:01:43.248Z,87629.00
2023-04-25T10:02:43.256Z,87629.00
2023-04-25T10:03:43.523Z,87623.00
2023-04-25T10:04:43.198Z,87621.00
2023-04-25T10:05:43.148Z,87616.00
2023-04-25T10:06:43.172Z,87616.00
2023-04-25T10:07:43.143Z,87614.00
2023-04-25T10:08:43.147Z,87614.00
2023-04-25T10:09:43.200Z,87616.00
2023-04-25T10:10:43.133Z,87616.00
2023-04-25T10:11:43.127Z,87614.00
2023-04-25T10:12:43.127Z,87608.00
2023-04-25T10:13:43.154Z,87608.00
2023-04-25T10:14:43.142Z,87606.00
2023-04-25T10:15:43.127Z,87606.00
2023-04-25T10:16:43.128Z,87610.00
2023-04-25T10:17:43.163Z,87612.00
2023-04-25T10:18:43.146Z,87608.00
2023-04-25T10:19:43.220Z,87612.00
2023-04-25T10:20:43.107Z,87610.00
2023-04-25T10:21:43.111Z,87606.00
2023-04-25T10:22:43.115Z,87614.00
2023-04-25T10:23:43.101Z,87606.00
2023-04-25T10:24:43.168Z,87610.00
2023-04-25T10:25:43.106Z,87614.00
2023-04-25T10:26:43.122Z,87619.00
2023-04-25T10:27:43.168Z,87619.00
2023-04-25T10:28:43.094Z,87616.00
2023-04-25T10:29:43.155Z,87621.00
2023-04-25T10:30:43.138Z,87619.00
2023-04-25T10:31:43.152Z,87617.00
2023-04-25T10:32:43.107Z,87619.00
2023-04-25T10:33:43.112Z,87621.00
2023-04-25T10:34:43.101Z,87619.00
2023-04-25T10:35:43.074Z,87623.00
2023-04-25T10:36:43.095Z,87619.00
2023-04-25T10:37:43.078Z,87627.00
2023-04-25T10:38:43.077Z,87625.00
2023-04-25T10:39:43.083Z,87625.00
2023-04-25T10:40:43.102Z,87623.00
2023-04-25T10:41:43.072Z,87637.00
2023-04-25T10:42:43.088Z,87627.00
2023-04-25T10:43:43.147Z,87627.00
2023-04-25T10:44:43.172Z,87623.00
2023-04-25T10:45:43.204Z,87629.00
2023-04-25T10:46:43.308Z,87625.00
2023-04-25T10:47:43.320Z,87633.00
2023-04-25T10:48:43.347Z,87627.00
2023-04-25T10:49:43.347Z,87635.00
2023-04-25T10:50:43.355Z,87633.00
2023-04-25T10:51:55.068Z,87637.00
2023-04-25T10:52:44.395Z,87641.00
2023-04-25T10:53:43.429Z,87635.00
2023-04-25T10:54:43.461Z,87637.00
2023-04-25T10:55:43.398Z,87641.00
2023-04-25T10:56:43.373Z,87637.00
2023-04-25T10:57:43.383Z,87639.00
2023-04-25T10:58:43.405Z,87639.00
2023-04-25T10:59:43.364Z,87639.00
2023-04-25T11:00:53.647Z,87639.00
2023-04-25T11:01:44.549Z,87635.00
2023-04-25T11:02:43.469Z,87631.00
2023-04-25T11:03:43.500Z,87633.00
2023-04-25T11:04:43.527Z,87633.00
2023-04-25T11:05:55.099Z,87629.00
2023-04-25T11:06:44.362Z,87627.00
2023-04-25T11:07:45.993Z,87625.00
2023-04-25T11:08:43.406Z,87625.00
2023-04-25T11:09:43.365Z,87625.00
2023-04-25T11:10:43.342Z,87627.00
2023-04-25T11:11:43.334Z,87619.00
2023-04-25T11:12:43.382Z,87623.00
2023-04-25T11:13:43.337Z,87619.00
2023-04-25T11:14:43.320Z,87621.00
2023-04-25T11:15:43.426Z,87616.00
2023-04-25T11:16:43.346Z,87616.00
2023-04-25T11:17:43.414Z,87610.00
2023-04-25T11:18:43.342Z,87604.00
2023-04-25T11:19:43.327Z,87602.00
2023-04-25T11:20:43.278Z,87604.00
2023-04-25T11:21:43.272Z,87600.00
2023-04-25T11:22:43.274Z,87596.00
2023-04-25T11:23:43.305Z,87586.00
2023-04-25T11:24:43.251Z,87586.00
2023-04-25T11:25:43.256Z,87584.00
2023-04-25T11:26:43.260Z,87584.00
2023-04-25T11:27:43.346Z,87580.00
2023-04-25T11:28:43.279Z,87580.00
2023-04-25T11:29:43.285Z,87578.00
2023-04-25T11:30:43.271Z,87576.00
2023-04-25T11:31:43.385Z,87576.00
2023-04-25T11:32:43.270Z,87584.00
2023-04-25T11:33:43.224Z,87584.00
2023-04-25T11:34:43.230Z,87582.00
2023-04-25T11:35:43.264Z,87586.00
2023-04-25T11:36:43.224Z,87576.00
2023-04-25T11:37:43.216Z,87578.00
2023-04-25T11:38:43.234Z,87578.00
2023-04-25T11:39:43.228Z,87582.00
2023-04-25T11:40:43.208Z,87582.00
2023-04-25T11:41:44.480Z,87578.00
2023-04-25T11:42:43.192Z,87574.00
2023-04-25T11:43:43.530Z,87588.00
2023-04-25T11:44:43.264Z,87590.00
2023-04-25T11:45:43.196Z,87590.00
2023-04-25T11:46:43.216Z,87588.00